Time;durP1;ratioP1;P1;durP2;ratioP2;P2;SDS_P1;SDS_P2;PMS_P1;PMS_P2;Temp;Humidity;BMP_temperature;BMP_pressure;BME280_temperature;BME280_humidity;BME280_pressure;Samples;Min_cycle;Max_cycle;Signal;HPM_P1;HPM_P2
2022/09/09 00:03:52;;;;;;;0.20;0.00;;;23.60;99.90;;;;;;26020603;22;21102;-70
2022/09/09 00:14:00;;;;;;;0.20;0.00;;;23.80;99.90;;;;;;26048190;22;20183;-70
2022/09/09 00:24:14;;;;;;;0.20;0.00;;;23.80;99.90;;;;;;26048040;22;20191;-70
2022/09/09 00:34:21;;;;;;;0.20;0.00;;;23.70;99.90;;;;;;26021944;22;20159;-71
2022/09/09 00:44:34;;;;;;;0.20;0.00;;;23.80;99.90;;;;;;26019084;22;20187;-71
2022/09/09 00:54:46;;;;;;;0.20;0.00;;;23.80;99.90;;;;;;26020389;22;20203;-70
2022/09/09 01:04:51;;;;;;;0.20;0.00;;;23.50;99.90;;;;;;26046259;22;20192;-71
2022/09/09 01:15:04;;;;;;;0.20;0.10;;;23.30;99.90;;;;;;26018572;22;20164;-70
2022/09/09 01:25:28;;;;;;;0.20;0.10;;;23.40;99.90;;;;;;25991667;22;20237;-70
2022/09/09 01:35:42;;;;;;;0.20;0.00;;;23.30;99.90;;;;;;26018041;22;20160;-70
2022/09/09 01:45:50;;;;;;;0.20;0.00;;;23.20;99.90;;;;;;26044638;22;20199;-70
2022/09/09 01:56:05;;;;;;;0.20;0.00;;;23.10;99.90;;;;;;26044194;22;20196;-69
2022/09/09 02:06:21;;;;;;;0.20;0.00;;;23.00;99.90;;;;;;26044315;22;20192;-70
2022/09/09 02:16:31;;;;;;;0.20;0.00;;;22.90;99.90;;;;;;26044776;22;20485;-70
2022/09/09 02:26:38;;;;;;;0.20;0.00;;;22.80;99.90;;;;;;26044238;22;20187;-70
2022/09/09 02:36:45;;;;;;;0.20;0.00;;;22.50;99.90;;;;;;26017326;22;20175;-70
2022/09/09 02:47:08;;;;;;;0.20;0.00;;;22.30;99.90;;;;;;26043198;22;20231;-71
2022/09/09 02:57:22;;;;;;;0.20;0.00;;;22.10;99.90;;;;;;26043066;22;20188;-69
2022/09/09 03:07:27;;;;;;;0.20;0.00;;;22.10;99.90;;;;;;26051195;22;20183;-70
2022/09/09 03:17:32;;;;;;;0.20;0.00;;;22.30;99.90;;;;;;26021707;22;20164;-69
2022/09/09 03:27:36;;;;;;;0.20;0.00;;;22.70;99.90;;;;;;26023665;22;20160;-71
2022/09/09 03:37:41;;;;;;;0.20;0.00;;;22.80;99.90;;;;;;26048950;22;20176;-69
2022/09/09 03:47:45;;;;;;;0.20;0.00;;;23.00;99.90;;;;;;26049439;22;20163;-70
2022/09/09 03:57:51;;;;;;;0.20;0.00;;;22.70;99.90;;;;;;26048466;22;20182;-69
2022/09/09 04:07:54;;;;;;;0.20;0.00;;;22.50;99.90;;;;;;26047900;22;20188;-70
2022/09/09 04:18:00;;;;;;;0.20;0.00;;;22.60;99.90;;;;;;26045925;22;20187;-69
2022/09/09 04:28:04;;;;;;;0.20;0.00;;;22.70;99.90;;;;;;26047123;22;20172;-69
2022/09/09 04:38:09;;;;;;;0.20;0.00;;;22.70;99.90;;;;;;26019888;22;20187;-69
2022/09/09 04:48:13;;;;;;;0.20;0.00;;;22.70;99.90;;;;;;26042472;22;20188;-69
2022/09/09 04:58:18;;;;;;;0.20;0.00;;;22.60;99.90;;;;;;26045097;22;20188;-69
2022/09/09 05:08:22;;;;;;;0.20;0.00;;;22.60;99.90;;;;;;26044523;22;20188;-69
2022/09/09 05:18:27;;;;;;;0.20;0.00;;;22.60;99.90;;;;;;26017479;22;20191;-69
2022/09/09 05:28:32;;;;;;;0.20;0.00;;;22.60;99.90;;;;;;26042564;22;20149;-70
2022/09/09 05:38:37;;;;;;;0.20;0.10;;;22.60;99.90;;;;;;26043552;22;20187;-69
2022/09/09 05:48:42;;;;;;;0.20;0.00;;;22.80;99.90;;;;;;26033896;22;20192;-69
2022/09/09 05:58:49;;;;;;;0.20;0.00;;;22.90;99.90;;;;;;26030901;22;20211;-69
2022/09/09 06:08:54;;;;;;;0.20;0.00;;;22.80;99.90;;;;;;26032832;22;20184;-70
2022/09/09 06:19:00;;;;;;;0.20;0.00;;;22.80;99.90;;;;;;26010349;22;20180;-69
2022/09/09 06:29:05;;;;;;;0.20;0.00;;;22.80;99.90;;;;;;26038583;22;20172;-69
2022/09/09 06:39:11;;;;;;;0.20;0.00;;;23.20;99.90;;;;;;26035127;22;20187;-67
2022/09/09 06:49:17;;;;;;;0.20;0.05;;;23.50;99.90;;;;;;26009300;22;20191;-69
2022/09/09 06:59:22;;;;;;;0.20;0.00;;;23.80;99.90;;;;;;26033351;22;20176;-69
2022/09/09 07:09:27;;;;;;;0.20;0.10;;;24.30;99.90;;;;;;26035519;22;20176;-69
2022/09/09 07:19:33;;;;;;;0.20;0.00;;;25.10;99.90;;;;;;26035517;22;20195;-74
2022/09/09 07:29:37;;;;;;;0.20;0.00;;;25.80;99.90;;;;;;26036417;22;20168;-70
2022/09/09 07:39:43;;;;;;;0.20;0.00;;;26.40;99.90;;;;;;26038197;22;20180;-70
2022/09/09 07:49:49;;;;;;;0.20;0.00;;;26.40;99.90;;;;;;26039906;22;20196;-68
2022/09/09 07:59:56;;;;;;;0.20;0.00;;;26.10;99.90;;;;;;26018887;22;20180;-70
2022/09/09 08:10:00;;;;;;;0.20;0.00;;;26.00;99.90;;;;;;26043255;22;20181;-70
2022/09/09 08:20:06;;;;;;;0.20;0.00;;;26.40;99.90;;;;;;26042666;22;20188;-69
2022/09/09 08:30:11;;;;;;;0.20;0.10;;;26.80;99.90;;;;;;26041001;22;20156;-70
2022/09/09 08:40:27;;;;;;;0.20;0.00;;;27.20;99.90;;;;;;26043735;22;20180;-70
2022/09/09 08:50:35;;;;;;;0.20;0.05;;;26.90;99.90;;;;;;26042227;22;20199;-70
2022/09/09 09:00:48;;;;;;;0.20;0.00;;;27.00;99.90;;;;;;26037688;22;20176;-69
2022/09/09 09:10:56;;;;;;;0.20;0.00;;;27.30;99.90;;;;;;26013268;22;20195;-70
2022/09/09 09:21:10;;;;;;;0.20;0.00;;;27.40;99.90;;;;;;26038329;22;20188;-69
2022/09/09 09:31:14;;;;;;;0.20;0.00;;;27.10;99.90;;;;;;26039359;22;20277;-70
2022/09/09 09:41:30;;;;;;;0.20;0.00;;;27.30;99.90;;;;;;26036879;22;20240;-70
2022/09/09 09:51:36;;;;;;;0.20;0.10;;;27.70;99.90;;;;;;26039145;22;20188;-68
2022/09/09 10:01:41;;;;;;;0.20;0.00;;;27.90;99.90;;;;;;26040116;22;20237;-70
2022/09/09 10:11:55;;;;;;;0.20;0.00;;;27.40;99.90;;;;;;26011283;22;20188;-72
2022/09/09 10:22:25;;;;;;;0.20;0.10;;;28.20;99.90;;;;;;26040402;22;20205;-71
2022/09/09 10:32:42;;;;;;;0.20;0.00;;;28.40;99.90;;;;;;26038931;22;20178;-70
2022/09/09 10:42:48;;;;;;;0.20;0.00;;;28.90;99.90;;;;;;26038031;22;20184;-70
2022/09/09 10:53:01;;;;;;;0.20;0.00;;;29.40;99.90;;;;;;26013645;22;20199;-70
2022/09/09 11:03:08;;;;;;;0.20;0.00;;;29.70;99.90;;;;;;26014175;22;20175;-70
2022/09/09 11:13:17;;;;;;;0.20;0.00;;;30.00;99.90;;;;;;26009504;22;20187;-69
2022/09/09 11:23:27;;;;;;;0.20;0.00;;;30.00;99.90;;;;;;26039518;22;20192;-69
2022/09/09 11:33:59;;;;;;;0.20;0.00;;;30.20;99.90;;;;;;26046207;22;20159;-70
2022/09/09 11:44:12;;;;;;;0.20;0.00;;;29.80;99.90;;;;;;26046131;22;20181;-70
2022/09/09 11:54:30;;;;;;;0.20;0.00;;;28.80;99.90;;;;;;26045265;22;20191;-69
2022/09/09 12:04:39;;;;;;;0.20;0.00;;;28.70;99.90;;;;;;26017981;22;20203;-70
2022/09/09 12:14:55;;;;;;;0.20;0.00;;;27.80;99.90;;;;;;26043725;22;20160;-70
2022/09/09 12:25:11;;;;;;;0.20;0.00;;;28.10;99.90;;;;;;26041882;22;20180;-69
2022/09/09 12:35:22;;;;;;;0.20;0.00;;;29.20;99.90;;;;;;26034854;22;20152;-71
2022/09/09 12:45:32;;;;;;;0.20;0.00;;;29.20;99.90;;;;;;26031761;22;20182;-70
2022/09/09 12:55:39;;;;;;;0.20;0.00;;;30.40;99.90;;;;;;26042260;22;20196;-70
2022/09/09 13:05:46;;;;;;;0.20;0.10;;;30.90;99.90;;;;;;26042320;22;20188;-69
2022/09/09 13:15:53;;;;;;;0.20;0.00;;;32.20;99.90;;;;;;26013187;22;20226;-69
2022/09/09 13:26:00;;;;;;;0.20;0.00;;;31.30;99.90;;;;;;26042155;22;20176;-70
2022/09/09 13:36:06;;;;;;;0.20;0.00;;;31.10;99.90;;;;;;26041543;22;20162;-70
2022/09/09 13:46:29;;;;;;;0.20;0.00;;;30.50;99.90;;;;;;26041304;22;20595;-69
2022/09/09 13:56:35;;;;;;;0.20;0.00;;;30.80;99.90;;;;;;25913751;23;20239;-70
2022/09/09 14:06:40;;;;;;;0.20;0.00;;;29.50;99.90;;;;;;25911939;23;20200;-70
2022/09/09 14:16:45;;;;;;;0.20;0.00;;;30.30;99.90;;;;;;25911941;23;20209;-71
2022/09/09 14:26:50;;;;;;;0.20;0.00;;;30.60;99.90;;;;;;25912593;23;20199;-69
2022/09/09 14:36:56;;;;;;;0.20;0.10;;;29.30;99.90;;;;;;25909417;23;20212;-70
2022/09/09 14:47:01;;;;;;;0.20;0.10;;;27.60;99.90;;;;;;25910262;23;20199;-70
2022/09/09 14:57:05;;;;;;;0.20;0.00;;;26.90;99.90;;;;;;26031167;22;20187;-72
2022/09/09 15:07:10;;;;;;;0.20;0.00;;;26.60;99.90;;;;;;26047914;22;20214;-71
2022/09/09 15:17:14;;;;;;;0.20;0.10;;;27.30;99.90;;;;;;26044837;22;20171;-68
2022/09/09 15:27:20;;;;;;;0.20;0.00;;;27.70;99.90;;;;;;26019692;22;20191;-71
2022/09/09 15:37:23;;;;;;;0.20;0.08;;;27.30;99.90;;;;;;26044652;22;20171;-71
2022/09/09 15:47:28;;;;;;;0.20;0.00;;;27.00;99.90;;;;;;26044184;22;20184;-70
2022/09/09 15:57:32;;;;;;;0.20;0.00;;;26.90;99.90;;;;;;26042780;22;20279;-71
2022/09/09 16:07:38;;;;;;;0.20;0.00;;;26.60;99.90;;;;;;25989999;22;20196;-71
2022/09/09 16:17:42;;;;;;;0.20;0.10;;;26.90;99.90;;;;;;26041923;22;20149;-70
2022/09/09 16:27:47;;;;;;;0.20;0.00;;;26.90;99.90;;;;;;26041242;22;20190;-68
2022/09/09 16:37:51;;;;;;;0.20;0.10;;;26.90;99.90;;;;;;26016169;22;20149;-72
2022/09/09 16:47:56;;;;;;;0.20;0.00;;;27.10;99.90;;;;;;26035159;22;20187;-70
2022/09/09 16:58:00;;;;;;;0.20;0.00;;;26.80;99.90;;;;;;26039702;22;20148;-71
2022/09/09 17:08:05;;;;;;;0.20;0.00;;;26.40;99.90;;;;;;26039063;22;20206;-70
2022/09/09 17:18:10;;;;;;;0.20;0.00;;;26.50;99.90;;;;;;26013922;22;20164;-71
2022/09/09 17:28:15;;;;;;;0.20;0.00;;;26.50;99.90;;;;;;26039380;22;20181;-70
2022/09/09 17:38:19;;;;;;;0.20;0.00;;;26.70;99.90;;;;;;26040521;22;20156;-71
2022/09/09 17:48:31;;;;;;;0.20;0.00;;;26.20;99.90;;;;;;26039529;22;20223;-71
2022/09/09 17:58:35;;;;;;;0.20;0.00;;;26.00;99.90;;;;;;26038838;22;20183;-69
2022/09/09 18:08:41;;;;;;;0.20;0.00;;;26.00;99.90;;;;;;26037375;22;20211;-70
2022/09/09 18:18:45;;;;;;;0.20;0.00;;;25.60;99.90;;;;;;26009234;22;20171;-70
2022/09/09 18:28:53;;;;;;;0.20;0.10;;;25.60;99.90;;;;;;26008921;22;20180;-67
2022/09/09 18:38:58;;;;;;;0.20;0.00;;;25.20;99.90;;;;;;26036381;22;20164;-70
2022/09/09 18:49:03;;;;;;;0.20;0.00;;;25.20;99.90;;;;;;26007688;22;20282;-68
2022/09/09 18:59:10;;;;;;;0.20;0.00;;;25.20;99.90;;;;;;26037255;22;20149;-69
2022/09/09 19:09:17;;;;;;;0.20;0.10;;;25.20;99.90;;;;;;26009994;22;20202;-69
2022/09/09 19:19:24;;;;;;;0.20;0.10;;;25.40;99.90;;;;;;26036960;22;20160;-69
2022/09/09 19:29:31;;;;;;;0.20;0.10;;;25.30;99.90;;;;;;26032860;22;20180;-70
2022/09/09 19:39:35;;;;;;;0.20;0.00;;;25.30;99.90;;;;;;26035320;22;20164;-70
2022/09/09 19:49:40;;;;;;;0.20;0.00;;;25.10;99.90;;;;;;26014508;22;20196;-70
2022/09/09 19:59:49;;;;;;;0.20;0.00;;;25.00;99.90;;;;;;26043510;22;20163;-70
2022/09/09 20:09:55;;;;;;;0.20;0.00;;;24.70;99.90;;;;;;26016759;22;20203;-71
2022/09/09 20:19:59;;;;;;;0.20;0.00;;;24.60;99.90;;;;;;26018608;22;20172;-69
2022/09/09 20:30:05;;;;;;;0.20;0.00;;;24.50;99.90;;;;;;26046503;22;20195;-70
2022/09/09 20:40:09;;;;;;;0.20;0.00;;;24.50;99.90;;;;;;25992165;22;20168;-70
2022/09/09 20:50:15;;;;;;;0.20;0.00;;;24.40;99.90;;;;;;26042265;22;20240;-70
2022/09/09 21:00:19;;;;;;;0.20;0.03;;;24.30;99.90;;;;;;26042193;22;20161;-69
2022/09/09 21:10:25;;;;;;;0.20;0.00;;;24.20;99.90;;;;;;26015813;22;20191;-69
2022/09/09 21:20:28;;;;;;;0.20;0.10;;;23.90;99.90;;;;;;26013671;22;20168;-69
2022/09/09 21:30:34;;;;;;;0.20;0.00;;;23.90;99.90;;;;;;26016535;22;20160;-69
2022/09/09 21:40:45;;;;;;;0.20;0.00;;;23.70;99.90;;;;;;26015913;22;20187;-69
2022/09/09 21:50:51;;;;;;;0.20;0.00;;;23.30;99.90;;;;;;26038952;22;20192;-69
2022/09/09 22:00:54;;;;;;;0.20;0.00;;;23.00;99.90;;;;;;26016021;22;20177;-69
2022/09/09 22:11:07;;;;;;;0.20;0.10;;;22.70;99.90;;;;;;26038978;22;20180;-68
2022/09/09 22:21:13;;;;;;;0.20;0.00;;;22.50;99.90;;;;;;26011271;22;20191;-70
2022/09/09 22:31:19;;;;;;;0.20;0.00;;;22.30;99.90;;;;;;26041188;22;20175;-69
2022/09/09 22:41:23;;;;;;;0.20;0.00;;;22.10;99.90;;;;;;26038814;22;20222;-69
2022/09/09 22:51:29;;;;;;;0.20;0.00;;;22.00;99.90;;;;;;26042293;22;20192;-69
2022/09/09 23:01:34;;;;;;;0.20;0.00;;;21.80;99.90;;;;;;26040106;22;20191;-70
2022/09/09 23:11:40;;;;;;;0.20;0.00;;;21.60;99.90;;;;;;26041932;22;20191;-70
2022/09/09 23:21:46;;;;;;;0.20;0.00;;;21.60;99.90;;;;;;26045981;22;20180;-69
2022/09/09 23:31:52;;;;;;;0.20;0.00;;;21.70;99.90;;;;;;26049137;22;20160;-69
2022/09/09 23:41:55;;;;;;;0.20;0.00;;;22.00;99.90;;;;;;26049009;22;20195;-69
2022/09/09 23:52:06;;;;;;;0.20;0.10;;;22.20;99.90;;;;;;26047584;22;20188;-70
